createdAt,value
2018-05-27T04:02:41.617Z,99.90
2018-05-27T04:05:21.170Z,99.90
2018-05-27T04:08:00.559Z,99.90
2018-05-27T04:10:28.130Z,99.90
2018-05-27T04:12:56.433Z,99.90
2018-05-27T04:15:24.001Z,99.90
2018-05-27T04:17:51.538Z,99.90
2018-05-27T04:20:19.875Z,99.90
2018-05-27T04:22:47.407Z,99.90
2018-05-27T04:25:14.981Z,99.90
2018-05-27T04:27:42.529Z,99.90
2018-05-27T04:30:10.106Z,99.90
2018-05-27T04:32:37.650Z,99.90
2018-05-27T04:35:05.222Z,99.90
2018-05-27T04:37:32.761Z,99.90
2018-05-27T04:40:00.326Z,99.90
2018-05-27T04:42:27.861Z,99.90
2018-05-27T04:44:55.426Z,99.90
2018-05-27T04:47:22.970Z,99.90
2018-05-27T04:49:51.294Z,99.90
2018-05-27T04:52:18.838Z,99.90
2018-05-27T04:54:46.401Z,99.90
2018-05-27T04:57:13.954Z,99.90
2018-05-27T04:59:41.514Z,99.90
2018-05-27T05:02:09.047Z,99.90
2018-05-27T05:04:37.354Z,99.90
2018-05-27T05:07:04.928Z,99.90
2018-05-27T05:09:32.514Z,99.90
2018-05-27T05:12:00.061Z,99.90
2018-05-27T05:14:27.606Z,99.90
2018-05-27T05:16:55.185Z,99.90
2018-05-27T05:19:22.729Z,99.90
2018-05-27T05:21:50.286Z,98.60
2018-05-27T05:24:17.847Z,96.50
2018-05-27T05:26:45.404Z,93.10
2018-05-27T05:29:12.967Z,89.10
2018-05-27T05:31:40.526Z,82.50
2018-05-27T05:34:08.072Z,75.20
2018-05-27T05:36:35.642Z,72.50
2018-05-27T05:39:03.190Z,70.40
2018-05-27T05:41:30.749Z,69.00
2018-05-27T05:43:58.309Z,66.80
2018-05-27T05:46:25.880Z,65.00
2018-05-27T05:48:53.427Z,62.50
2018-05-27T05:51:20.993Z,63.20
2018-05-27T05:53:48.546Z,62.20
2018-05-27T05:56:16.126Z,61.70
2018-05-27T05:58:43.670Z,61.20
2018-05-27T06:01:11.243Z,59.00
2018-05-27T06:03:38.799Z,60.00
2018-05-27T06:06:06.359Z,59.90
2018-05-27T06:08:33.904Z,60.70
2018-05-27T06:11:02.242Z,66.40
2018-05-27T06:13:29.838Z,66.40
2018-05-27T06:15:57.415Z,68.00
2018-05-27T06:18:25.706Z,74.40
2018-05-27T06:20:53.273Z,74.40
2018-05-27T06:23:20.809Z,78.10
2018-05-27T06:25:48.414Z,81.20
2018-05-27T06:28:15.947Z,83.70
2018-05-27T06:30:43.491Z,85.00
2018-05-27T06:33:11.061Z,85.60
2018-05-27T06:35:38.606Z,87.50
2018-05-27T06:38:06.943Z,82.00
2018-05-27T06:40:34.481Z,82.00
2018-05-27T06:43:02.060Z,86.30
2018-05-27T06:45:29.608Z,84.20
2018-05-27T06:47:57.177Z,79.50
2018-05-27T06:50:24.730Z,79.90
2018-05-27T06:52:52.305Z,82.90
2018-05-27T06:55:19.852Z,82.50
2018-05-27T06:57:47.426Z,81.80
2018-05-27T07:00:14.972Z,84.10
2018-05-27T07:02:42.525Z,82.40
2018-05-27T07:05:10.182Z,81.20
2018-05-27T07:07:37.749Z,85.50
2018-05-27T07:10:05.291Z,78.80
2018-05-27T07:12:32.867Z,78.40
2018-05-27T07:15:00.406Z,80.00
2018-05-27T07:17:27.966Z,77.70
2018-05-27T07:19:55.509Z,74.40
2018-05-27T07:22:23.835Z,70.50
2018-05-27T07:24:51.376Z,70.50
2018-05-27T07:27:18.938Z,71.10
2018-05-27T07:29:46.477Z,71.60
2018-05-27T07:32:14.098Z,69.70
2018-05-27T07:34:41.615Z,70.30
2018-05-27T07:37:09.190Z,72.50
2018-05-27T07:39:36.728Z,69.50
2018-05-27T07:42:04.291Z,70.50
2018-05-27T07:44:31.829Z,72.70
2018-05-27T07:47:00.161Z,75.00
2018-05-27T07:49:27.707Z,75.10
2018-05-27T07:51:55.275Z,78.30
2018-05-27T07:54:22.830Z,76.40
2018-05-27T07:56:50.364Z,75.90
2018-05-27T07:59:17.943Z,78.20
2018-05-27T08:01:45.487Z,79.20
2018-05-27T08:04:13.052Z,79.50
2018-05-27T08:06:40.591Z,79.70
2018-05-27T08:09:08.943Z,79.40
2018-05-27T08:11:36.488Z,79.40
2018-05-27T08:14:04.050Z,79.50
2018-05-27T08:16:31.598Z,82.10
2018-05-27T08:18:59.174Z,80.40
2018-05-27T08:21:26.712Z,82.60
2018-05-27T08:23:54.286Z,82.60
2018-05-27T08:26:21.818Z,81.80
2018-05-27T08:28:50.407Z,83.00
2018-05-27T08:31:17.943Z,83.10
2018-05-27T08:33:46.273Z,83.80
2018-05-27T08:36:13.822Z,83.70
2018-05-27T08:38:41.393Z,85.20
2018-05-27T08:41:08.922Z,82.60
2018-05-27T08:43:36.492Z,82.80
2018-05-27T08:46:04.038Z,82.80
2018-05-27T08:48:31.609Z,84.40
2018-05-27T08:50:59.167Z,82.80
2018-05-27T08:53:26.770Z,85.90
2018-05-27T08:55:54.302Z,89.40
2018-05-27T08:58:21.870Z,90.00
2018-05-27T09:00:49.528Z,91.60
2018-05-27T09:03:17.099Z,92.20
2018-05-27T09:05:44.644Z,90.30
2018-05-27T09:08:12.222Z,90.80
2018-05-27T09:10:39.775Z,92.20
2018-05-27T09:13:07.342Z,89.20
2018-05-27T09:15:34.885Z,90.20
2018-05-27T09:18:02.427Z,86.80
2018-05-27T09:20:30.006Z,88.80
2018-05-27T09:22:57.570Z,91.10
2018-05-27T09:25:25.134Z,90.60
2018-05-27T09:27:52.686Z,88.50
2018-05-27T09:30:20.258Z,86.40
2018-05-27T09:32:47.803Z,87.40
2018-05-27T09:35:15.374Z,86.20
2018-05-27T09:37:42.915Z,85.80
2018-05-27T09:40:10.482Z,78.50
2018-05-27T09:42:38.023Z,75.00
2018-05-27T09:45:05.673Z,80.80
2018-05-27T09:47:33.182Z,75.20
2018-05-27T09:50:00.741Z,74.90
2018-05-27T09:52:28.285Z,70.60
2018-05-27T09:54:55.846Z,76.40
2018-05-27T09:57:23.379Z,66.80
2018-05-27T09:59:50.963Z,74.00
2018-05-27T10:02:18.518Z,73.50
2018-05-27T10:04:46.081Z,69.60
2018-05-27T10:07:13.618Z,70.60
2018-05-27T10:09:41.178Z,70.40
2018-05-27T10:12:09.490Z,66.90
2018-05-27T10:14:37.860Z,66.80
2018-05-27T10:17:05.409Z,67.30
2018-05-27T10:19:32.983Z,70.20
2018-05-27T10:22:00.539Z,69.60
2018-05-27T10:24:28.111Z,69.40
2018-05-27T10:26:55.683Z,69.90
2018-05-27T10:29:23.227Z,71.10
2018-05-27T10:31:50.790Z,70.90
2018-05-27T10:34:18.335Z,70.20
2018-05-27T10:36:45.924Z,69.20
2018-05-27T10:39:13.482Z,67.50
2018-05-27T10:41:41.045Z,66.60
2018-05-27T10:44:08.586Z,66.70
2018-05-27T10:46:36.163Z,65.20
2018-05-27T10:49:03.706Z,67.70
2018-05-27T10:51:31.298Z,70.20
2018-05-27T10:53:58.833Z,65.10
2018-05-27T10:56:26.416Z,63.70
2018-05-27T10:58:53.959Z,63.30
2018-05-27T11:01:21.540Z,62.70
2018-05-27T11:03:49.070Z,63.00
2018-05-27T11:06:16.642Z,64.30
2018-05-27T11:08:44.181Z,63.70
2018-05-27T11:11:11.744Z,65.00
2018-05-27T11:13:39.291Z,64.30
2018-05-27T11:16:06.862Z,67.10
2018-05-27T11:18:34.407Z,64.80
2018-05-27T11:21:01.984Z,66.60
2018-05-27T11:23:29.525Z,63.10
2018-05-27T11:25:57.098Z,63.60
2018-05-27T11:28:24.639Z,62.60
2018-05-27T11:30:52.983Z,61.00
2018-05-27T11:33:20.531Z,60.90
2018-05-27T11:35:48.094Z,60.20
2018-05-27T11:38:15.651Z,59.10
2018-05-27T11:40:43.214Z,58.20
2018-05-27T11:43:10.767Z,58.80
2018-05-27T11:45:38.331Z,59.40
2018-05-27T11:48:05.874Z,61.10
2018-05-27T11:50:33.454Z,59.70
2018-05-27T11:53:01.005Z,59.70
2018-05-27T11:55:28.578Z,55.30
2018-05-27T11:57:56.131Z,57.20
2018-05-27T12:00:23.687Z,59.20
2018-05-27T12:02:51.254Z,57.30
2018-05-27T12:05:18.808Z,58.10
2018-05-27T12:07:46.383Z,61.20
2018-05-27T12:10:13.927Z,58.20
2018-05-27T12:12:41.487Z,59.30
2018-05-27T12:15:09.026Z,59.30
2018-05-27T12:17:36.602Z,54.80
2018-05-27T12:20:04.134Z,55.50
2018-05-27T12:22:32.462Z,58.10
2018-05-27T12:24:59.995Z,58.10
2018-05-27T12:27:27.554Z,58.60
2018-05-27T12:29:55.191Z,58.70
2018-05-27T12:32:22.693Z,57.70
2018-05-27T12:34:50.235Z,56.90
2018-05-27T12:37:17.811Z,57.70
2018-05-27T12:39:45.349Z,58.00
2018-05-27T12:42:12.937Z,57.30
2018-05-27T12:44:40.484Z,55.80
2018-05-27T12:47:08.055Z,56.40
2018-05-27T12:49:35.590Z,55.90
2018-05-27T12:52:03.152Z,54.80
2018-05-27T12:54:30.694Z,56.00
2018-05-27T12:56:59.047Z,57.40
2018-05-27T12:59:28.111Z,57.60
2018-05-27T13:01:55.684Z,57.60
2018-05-27T13:04:23.226Z,57.40
2018-05-27T13:06:50.808Z,56.50
2018-05-27T13:09:18.349Z,57.10
2018-05-27T13:11:46.254Z,58.60
2018-05-27T13:14:14.377Z,60.70
2018-05-27T13:16:42.074Z,61.60
2018-05-27T13:19:09.522Z,62.70
2018-05-27T13:21:37.106Z,62.60
2018-05-27T13:24:05.425Z,70.80
2018-05-27T13:26:33.003Z,70.70
2018-05-27T13:29:01.085Z,72.10
2018-05-27T13:31:28.666Z,78.70
2018-05-27T13:33:56.237Z,88.80
2018-05-27T13:36:24.371Z,93.70
2018-05-27T13:38:52.897Z,95.10
2018-05-27T13:41:20.446Z,95.60
2018-05-27T13:43:48.818Z,97.70
2018-05-27T13:46:16.354Z,99.80
2018-05-27T13:48:44.402Z,99.90
2018-05-27T13:51:12.701Z,99.90
2018-05-27T13:53:40.273Z,99.90
2018-05-27T13:56:07.821Z,99.90
2018-05-27T13:58:37.155Z,99.90
2018-05-27T14:01:04.702Z,99.90
2018-05-27T14:03:33.206Z,99.90
2018-05-27T14:06:00.749Z,99.90
2018-05-27T14:08:28.363Z,99.90
2018-05-27T14:10:55.911Z,99.90
2018-05-27T14:13:24.255Z,99.90
2018-05-27T14:15:52.495Z,99.90
2018-05-27T14:18:20.069Z,99.90
2018-05-27T14:20:47.609Z,99.90
2018-05-27T14:23:15.175Z,99.90
2018-05-27T14:25:43.653Z,99.90
2018-05-27T14:28:11.215Z,99.90
2018-05-27T14:30:38.765Z,99.90
2018-05-27T14:33:06.337Z,99.90
2018-05-27T14:35:33.874Z,99.90
2018-05-27T14:38:03.255Z,99.90
2018-05-27T14:40:30.801Z,99.90
2018-05-27T14:42:58.379Z,99.90
2018-05-27T14:45:25.919Z,99.90
2018-05-27T14:47:53.482Z,99.90
2018-05-27T14:50:21.038Z,99.90
2018-05-27T14:52:48.636Z,99.90
2018-05-27T14:55:16.933Z,99.90
2018-05-27T14:57:44.493Z,99.90
2018-05-27T15:00:12.033Z,99.90
2018-05-27T15:02:40.377Z,99.90
2018-05-27T15:05:07.920Z,99.90
2018-05-27T15:07:35.506Z,99.90
2018-05-27T15:10:03.084Z,99.90
2018-05-27T15:12:30.627Z,99.90
2018-05-27T15:14:58.205Z,99.90
2018-05-27T15:17:26.513Z,99.90
2018-05-27T15:19:54.087Z,99.90
2018-05-27T15:22:21.626Z,99.90
2018-05-27T15:24:49.961Z,99.90
2018-05-27T15:27:17.502Z,99.90
2018-05-27T15:29:45.067Z,99.90
2018-05-27T15:32:12.660Z,99.90
2018-05-27T15:34:40.219Z,99.90
2018-05-27T15:37:09.278Z,99.90
2018-05-27T15:39:36.861Z,99.90
2018-05-27T15:42:04.402Z,99.90
2018-05-27T15:44:31.966Z,99.90
2018-05-27T15:46:59.507Z,99.90
2018-05-27T15:49:27.079Z,99.90
2018-05-27T15:51:54.627Z,99.90
2018-05-27T15:54:22.209Z,99.90
2018-05-27T15:56:49.747Z,99.90
2018-05-27T15:59:17.354Z,99.90
2018-05-27T16:01:44.915Z,99.90
2018-05-27T16:04:12.490Z,99.90
2018-05-27T16:06:40.798Z,99.90
2018-05-27T16:09:08.374Z,99.90
2018-05-27T16:11:35.917Z,99.90
2018-05-27T16:14:03.494Z,99.90
2018-05-27T16:16:31.043Z,99.90
2018-05-27T16:18:58.601Z,99.90
2018-05-27T16:21:26.165Z,99.90
2018-05-27T16:23:54.452Z,99.90
2018-05-27T16:26:22.018Z,99.90
2018-05-27T16:28:49.610Z,99.90
2018-05-27T16:31:17.153Z,99.90
2018-05-27T16:33:44.726Z,99.90
2018-05-27T16:36:12.274Z,99.90
2018-05-27T16:38:39.846Z,99.90
2018-05-27T16:41:07.407Z,99.90
2018-05-27T16:43:34.992Z,99.90
2018-05-27T16:46:03.311Z,99.90
2018-05-27T16:48:30.854Z,99.90
2018-05-27T16:50:58.426Z,99.90
2018-05-27T16:53:25.985Z,99.90
2018-05-27T16:55:53.552Z,99.90
2018-05-27T16:58:21.098Z,99.90
2018-05-27T17:00:48.661Z,99.90
2018-05-27T17:03:16.213Z,99.90
2018-05-27T17:05:43.797Z,99.90
2018-05-27T17:08:11.341Z,99.90
2018-05-27T17:10:38.901Z,99.90
2018-05-27T17:13:06.441Z,99.90
2018-05-27T17:15:34.858Z,99.90
2018-05-27T17:18:02.402Z,99.90
2018-05-27T17:20:29.967Z,99.90
2018-05-27T17:22:57.627Z,99.90
2018-05-27T17:25:25.194Z,99.90
2018-05-27T17:27:52.772Z,99.90
2018-05-27T17:30:20.340Z,99.90
2018-05-27T17:32:47.897Z,99.90
2018-05-27T17:35:15.475Z,99.90
2018-05-27T17:37:43.013Z,99.90
2018-05-27T17:40:10.593Z,99.90
2018-05-27T17:42:38.157Z,99.90
2018-05-27T17:45:05.724Z,99.90
2018-05-27T17:47:33.275Z,99.90
2018-05-27T17:50:00.841Z,99.90
2018-05-27T17:52:28.374Z,99.90
2018-05-27T17:54:55.946Z,99.90
2018-05-27T17:57:23.494Z,99.90
2018-05-27T17:59:51.073Z,99.90
2018-05-27T18:02:18.614Z,99.90
2018-05-27T18:04:46.197Z,99.90
2018-05-27T18:07:13.736Z,99.90
2018-05-27T18:09:41.305Z,99.90
2018-05-27T18:12:08.852Z,99.90
2018-05-27T18:14:36.414Z,99.90
2018-05-27T18:17:03.988Z,99.90
2018-05-27T18:19:31.527Z,99.90
2018-05-27T18:21:59.090Z,99.90
2018-05-27T18:24:26.643Z,99.90
2018-05-27T18:26:54.213Z,99.90
2018-05-27T18:29:21.768Z,99.90
2018-05-27T18:31:49.340Z,99.90
2018-05-27T18:34:16.909Z,99.90
2018-05-27T18:36:44.477Z,99.90
2018-05-27T18:39:12.023Z,99.90
2018-05-27T18:41:39.587Z,99.90
2018-05-27T18:44:07.131Z,99.90
2018-05-27T18:46:34.700Z,99.90
2018-05-27T18:49:02.250Z,99.90
2018-05-27T18:51:29.820Z,99.90
2018-05-27T18:53:57.371Z,99.90
2018-05-27T18:56:24.936Z,99.90
2018-05-27T18:58:52.488Z,99.90
